Latest Weather Observations for Lucas Heights (ANSTO)

IDN60901

Issued at 4:41 am EST Sunday 21 July 2019 (issued every 10 minutes, with the page automatically refreshed every 10 minutes)

About weather observations | Map of Sydney area stations | Latest observations for Sydney area | Other Formats
Station Details ID: 066023 Name: LUCAS HEIGHTS (ANSTO) Lat: -34.05 Lon: 150.98 Height: 140.0 m
Data from the previous 72 hours. | See also: Recent months for locations in New South Wales
Date/Time
EST
Temp
°C
App
Temp
°C
Dew
Point
°C
Rel
Hum
%
Delta-T
°C
Wind Press
QNH
hPa
Press
MSL
hPa
Rain since
9am
mm
Dir  Spd
km/h
Gust
km/h
Spd
kts
Gust
kts
21/04:30am 9.7 4.7 3.5 65 2.7 WNW 19 24 10 13 1017.1 - 0.0
21/04:15am 9.8 4.8 3.6 65 2.7 WNW 19 22 10 12 1017.2 - 0.0
21/04:00am 9.8 4.8 3.4 64 2.8 WNW 19 22 10 12 1017.2 - 0.0
21/03:45am 10.0 4.9 3.3 63 2.9 WNW 19 22 10 12 1017.3 - 0.0
21/03:30am 9.9 5.3 3.6 65 2.8 WNW 17 20 9 11 1017.1 - 0.0
21/03:15am 9.8 5.2 3.7 66 2.7 WNW 17 20 9 11 1017.4 - 0.0
21/03:00am 10.0 5.4 3.6 64 2.8 W 17 20 9 11 1017.6 - 0.0
21/02:45am 9.8 4.8 3.6 65 2.7 WNW 19 20 10 11 1017.6 - 0.0
21/02:30am 10.0 5.0 3.7 65 2.8 WNW 19 20 10 11 1017.7 - 0.0
21/02:15am 10.2 6.0 3.7 64 2.9 WNW 15 19 8 10 1017.8 - 0.0
21/02:00am 10.5 5.9 3.9 63 2.9 WNW 17 22 9 12 1018.0 - 0.0
21/01:45am 10.5 6.0 4.2 65 2.8 WNW 17 20 9 11 1018.1 - 0.0
21/01:30am 10.7 6.3 4.5 65 2.8 WNW 17 20 9 11 1018.2 - 0.0
21/01:15am 10.8 6.0 4.6 65 2.8 NW 19 20 10 11 1018.3 - 0.0
21/01:00am 10.7 6.4 5.1 68 2.6 WNW 17 19 9 10 1018.4 - 0.0
21/12:45am 9.4 4.7 5.1 74 1.9 NW 19 20 10 11 1018.5 - 0.0
21/12:30am 8.5 3.7 4.7 77 1.7 NW 19 20 10 11 1018.6 - 0.0
21/12:15am 8.1 3.5 3.8 74 1.9 WNW 17 20 9 11 1018.8 - 0.0
21/12:00am 9.1 5.0 4.2 71 2.2 WNW 15 19 8 10 1018.9 - 0.0
 
Date/Time
EST
Temp
°C
App
Temp
°C
Dew
Point
°C
Rel
Hum
%
Delta-T
°C
Wind Press
QNH
hPa
Press
MSL
hPa
Rain since
9am
mm
Dir  Spd
km/h
Gust
km/h
Spd
kts
Gust
kts
20/11:45pm 9.8 5.7 4.3 68 2.5 NW 15 17 8 9 1019.0 - 0.0
20/11:30pm 10.1 6.0 4.5 68 2.5 NW 15 17 8 9 1019.2 - 0.0
20/11:15pm 9.9 5.8 4.5 69 2.4 NNW 15 19 8 10 1019.2 - 0.0
20/11:00pm 10.1 6.1 5.1 71 2.3 NNW 15 20 8 11 1019.3 - 0.0
20/10:45pm 9.6 4.9 6.1 79 1.6 NNW 20 26 11 14 1019.4 - 0.0
20/10:30pm 8.7 5.7 5.9 82 1.3 NNW 11 17 6 9 1019.5 - 0.0
20/10:15pm 8.1 5.4 5.5 84 1.2 N 9 15 5 8 1019.6 - 0.0
20/10:00pm 8.3 5.5 5.3 81 1.4 NNW 9 13 5 7 1019.5 - 0.0
20/09:45pm 9.0 5.6 5.9 81 1.4 NNW 13 19 7 10 1019.6 - 0.0
20/09:30pm 9.0 6.4 5.9 81 1.4 NNW 9 15 5 8 1019.6 - 0.0
20/09:15pm 9.3 7.2 5.9 79 1.6 NNW 6 11 3 6 1019.6 - 0.0
20/09:00pm 9.8 7.2 6.3 79 1.6 N 9 13 5 7 1019.7 - 0.0
20/08:45pm 10.1 7.5 6.1 76 1.9 - 9 11 5 6 1019.8 - 0.0
20/08:30pm 10.8 8.3 6.7 76 1.9 N 9 15 5 8 1019.9 - 0.0
20/08:15pm 10.7 8.2 6.6 76 1.9 N 9 15 5 8 1019.9 - 0.0
20/08:00pm 11.0 8.1 6.6 74 2.1 N 11 15 6 8 1019.8 - 0.0
20/07:45pm 11.4 8.5 6.7 73 2.2 N 11 15 6 8 1019.8 - 0.0
20/07:30pm 12.0 8.8 6.8 70 2.5 N 13 17 7 9 1019.7 - 0.0
20/07:15pm 12.4 9.2 6.8 68 2.7 NNE 13 19 7 10 1019.7 - 0.0
20/07:00pm 13.0 9.5 7.2 68 2.8 NNE 15 19 8 10 1019.7 - 0.0
20/06:45pm 12.7 9.1 6.8 67 2.9 NNE 15 19 8 10 1019.6 - 0.0
20/06:30pm 12.6 9.2 6.1 64 3.1 NNE 13 17 7 9 1019.6 - 0.0
20/06:15pm 13.1 9.7 6.0 62 3.4 NNE 13 17 7 9 1019.5 - 0.0
20/06:00pm 13.1 9.9 5.3 59 3.7 NNE 11 15 6 8 1019.4 - 0.0
20/05:45pm 13.9 10.8 5.5 57 4.0 N 11 15 6 8 1019.3 - 0.0
20/05:30pm 14.4 11.3 5.7 56 4.2 - 11 15 6 8 1019.2 - 0.0
20/05:15pm 15.0 12.3 5.5 53 4.5 N 9 13 5 7 1019.2 - 0.0
20/05:00pm 15.9 13.6 5.5 50 5.0 N 7 9 4 5 1019.3 - 0.0
20/04:45pm 17.3 15.1 5.3 45 5.8 N 6 9 3 5 1019.2 - 0.0
20/04:30pm 18.1 15.9 5.4 43 6.2 NNW 6 9 3 5 1019.1 - 0.0
20/04:15pm 18.4 16.1 4.9 41 6.5 NNW 6 9 3 5 1019.2 - 0.0
20/04:00pm 18.6 16.1 4.6 39 6.8 NNW 7 15 4 8 1019.2 - 0.0
20/03:45pm 18.7 16.1 4.4 39 6.9 NNW 7 13 4 7 1019.2 - 0.0
20/03:30pm 18.5 15.6 4.6 40 6.7 NNW 9 15 5 8 1019.3 - 0.0
20/03:15pm 18.5 15.2 4.6 40 6.7 NNW 11 19 6 10 1019.3 - 0.0
20/03:00pm 18.4 15.1 4.8 40 6.6 NNW 11 19 6 10 1019.4 - 0.0
20/02:45pm 18.3 14.7 5.0 41 6.5 NNW 13 20 7 11 1019.6 - 0.0
20/02:30pm 18.1 14.5 5.1 42 6.3 NNW 13 19 7 10 1019.7 - 0.0
20/02:15pm 17.8 13.8 4.8 42 6.3 NNW 15 22 8 12 1019.9 - 0.0
20/02:00pm 17.8 14.7 5.4 44 6.0 NNW 11 19 6 10 1020.0 - 0.0
20/01:45pm 17.2 14.0 5.1 44 5.8 N 11 20 6 11 1020.1 - 0.0
20/01:30pm 17.0 12.6 4.8 44 5.8 NNW 17 24 9 13 1020.2 - 0.0
20/01:15pm 16.7 12.7 4.7 45 5.7 NNW 15 26 8 14 1020.5 - 0.0
20/01:00pm 16.4 12.4 5.1 47 5.4 NNW 15 24 8 13 1020.8 - 0.0
20/12:45pm 15.9 11.5 4.8 47 5.3 NW 17 28 9 15 1021.1 - 0.0
20/12:30pm 15.7 11.3 4.8 48 5.2 NW 17 26 9 14 1021.3 - 0.0
20/12:15pm 15.5 11.1 4.9 49 5.0 NNW 17 26 9 14 1021.6 - 0.0
20/12:00pm 15.2 11.3 5.4 52 4.7 NW 15 22 8 12 1021.8 - 0.0
20/11:45am 14.9 11.3 5.2 52 4.6 NW 13 24 7 13 1022.2 - 0.0
20/11:30am 14.4 10.5 5.2 54 4.4 NW 15 20 8 11 1022.5 - 0.0
20/11:15am 14.2 11.1 5.6 56 4.1 WNW 11 19 6 10 1022.8 - 0.0
20/11:00am 13.6 10.1 5.3 57 3.9 WNW 13 19 7 10 1023.1 - 0.0
20/10:45am 13.4 9.8 4.9 56 4.0 WNW 13 20 7 11 1023.3 - 0.0
20/10:30am 13.3 10.6 5.5 59 3.7 WNW 9 15 5 8 1023.5 - 0.0
20/10:15am 12.6 9.9 5.5 62 3.3 W 9 15 5 8 1023.7 - 0.0
20/10:00am 12.1 8.5 5.0 62 3.3 W 13 19 7 10 1023.8 - 0.0
20/09:45am 11.7 8.5 4.9 63 3.1 W 11 19 6 10 1023.9 - 0.0
20/09:30am 11.4 8.2 5.0 65 2.9 W 11 15 6 8 1023.9 - 0.0
20/09:15am 11.1 8.3 5.3 67 2.7 W 9 19 5 10 1023.9 - 0.0
20/09:00am 10.7 7.5 5.0 68 2.6 W 11 17 6 9 1023.8 - 0.0
20/08:45am 10.3 6.6 4.6 68 2.6 WSW 13 19 7 10 1023.7 - 0.0
20/08:30am 10.0 5.5 4.4 68 2.5 WSW 17 20 9 11 1023.6 - 0.0
20/08:15am 9.4 4.6 4.4 71 2.2 WSW 19 20 10 11 1023.6 - 0.0
20/08:00am 8.9 3.8 4.1 72 2.1 WSW 20 22 11 12 1023.6 - 0.0
20/07:45am 8.3 3.4 4.2 75 1.8 WSW 19 20 10 11 1023.5 - 0.0
20/07:30am 7.4 2.8 3.9 78 1.5 WSW 17 20 9 11 1023.3 - 0.0
20/07:15am 7.0 2.4 3.8 80 1.4 WSW 17 19 9 10 1023.3 - 0.0
20/07:00am 6.7 2.5 3.9 82 1.2 WSW 15 19 8 10 1023.3 - 0.0
20/06:45am 6.3 2.1 3.8 84 1.1 SW 15 17 8 9 1023.2 - 0.0
20/06:30am 5.7 1.4 3.1 83 1.1 SW 15 17 8 9 1023.2 - 0.0
20/06:15am 5.8 1.1 3.0 82 1.2 SW 17 19 9 10 1023.2 - 0.0
20/06:00am 6.5 1.9 3.5 81 1.3 SW 17 19 9 10 1023.2 - 0.0
20/05:45am 6.6 2.0 3.7 82 1.2 SW 17 19 9 10 1023.1 - 0.0
20/05:30am 6.5 1.8 3.3 80 1.4 SW 17 19 9 10 1023.0 - 0.0
20/05:15am 7.1 2.1 3.5 78 1.5 SW 19 20 10 11 1023.0 - 0.0
20/05:00am 7.7 2.8 3.9 77 1.6 SW 19 20 10 11 1023.0 - 0.0
20/04:45am 7.9 2.8 4.2 77 1.6 SW 20 22 11 12 1022.9 - 0.0
20/04:30am 7.7 2.7 4.4 79 1.4 SW 20 22 11 12 1022.8 - 0.0
20/04:15am 7.1 2.3 4.5 83 1.1 SW 19 20 10 11 1022.8 - 0.0
20/04:00am 6.3 2.1 3.8 84 1.1 SW 15 19 8 10 1022.7 - 0.0
20/03:45am 6.3 2.1 3.8 84 1.1 SW 15 17 8 9 1022.7 - 0.0
20/03:30am 6.2 2.0 3.8 85 1.0 SSW 15 17 8 9 1022.7 - 0.0
20/03:15am 6.0 1.8 3.6 84 1.0 SSW 15 19 8 10 1022.8 - 0.0
20/03:00am 6.0 1.7 3.5 84 1.1 SSW 15 17 8 9 1023.0 - 0.0
20/02:45am 6.1 2.2 3.6 84 1.1 SW 13 15 7 8 1023.1 - 0.0
20/02:30am 6.1 2.6 3.6 84 1.1 SW 11 15 6 8 1023.1 - 0.0
20/02:15am 6.3 2.5 3.7 83 1.1 SW 13 15 7 8 1023.2 - 0.0
20/02:00am 6.4 2.6 3.7 83 1.2 SW 13 15 7 8 1023.3 - 0.0
20/01:45am 6.2 1.9 3.4 82 1.2 SW 15 17 8 9 1023.3 - 0.0
20/01:30am 6.8 2.5 3.5 79 1.4 SW 15 17 8 9 1023.4 - 0.0
20/01:15am 7.5 3.4 4.1 79 1.5 SW 15 17 8 9 1023.4 - 0.0
20/01:00am 7.8 3.6 4.0 77 1.7 SW 15 19 8 10 1023.4 - 0.0
20/12:45am 7.9 3.8 4.3 78 1.6 SW 15 17 8 9 1023.4 - 0.0
20/12:30am 7.7 4.1 4.8 82 1.3 SW 13 15 7 8 1023.4 - 0.0
20/12:15am 6.6 2.3 3.4 80 1.4 SSW 15 15 8 8 1023.5 - 0.0
20/12:00am 7.7 4.0 4.4 79 1.4 SW 13 17 7 9 1023.5 - 0.0
 
Date/Time
EST
Temp
°C
App
Temp
°C
Dew
Point
°C
Rel
Hum
%
Delta-T
°C
Wind Press
QNH
hPa
Press
MSL
hPa
Rain since
9am
mm
Dir  Spd
km/h
Gust
km/h
Spd
kts
Gust
kts
19/11:45pm 7.1 2.9 3.7 79 1.5 SW 15 15 8 8 1023.7 - 0.0
19/11:30pm 7.9 3.7 3.9 76 1.7 SW 15 19 8 10 1023.7 - 0.0
19/11:15pm 8.7 4.2 4.3 74 1.9 SW 17 19 9 10 1023.7 - 0.0
19/11:00pm 8.9 4.5 4.8 75 1.8 SW 17 19 9 10 1023.7 - 0.0
19/10:45pm 8.3 4.2 4.5 77 1.7 SW 15 17 8 9 1023.7 - 0.0
19/10:30pm 8.1 4.0 4.2 76 1.7 SSW 15 15 8 8 1023.6 - 0.0
19/10:15pm 8.3 4.6 4.3 76 1.8 SSW 13 15 7 8 1023.6 - 0.0
19/10:00pm 8.5 4.4 4.2 74 1.9 SSW 15 19 8 10 1023.5 - 0.0
19/09:45pm 8.9 5.2 4.3 73 2.0 SSW 13 15 7 8 1023.4 - 0.0
19/09:30pm 9.0 5.2 4.1 71 2.2 SSW 13 15 7 8 1023.3 - 0.0
19/09:15pm 9.5 5.4 4.1 69 2.4 SSW 15 17 8 9 1023.3 - 0.0
19/09:00pm 10.7 6.6 4.5 65 2.8 SSW 15 17 8 9 1023.3 - 0.0
19/08:45pm 11.3 6.5 4.9 65 2.9 SW 19 19 10 10 1023.1 - 0.0
19/08:30pm 11.2 6.8 4.8 64 2.9 SW 17 20 9 11 1023.0 - 0.0
19/08:15pm 12.0 7.6 4.9 62 3.3 SW 17 20 9 11 1022.9 - 0.0
19/08:00pm 12.1 7.3 5.4 63 3.1 SW 20 26 11 14 1022.8 - 0.0
19/07:45pm 12.2 7.6 5.5 63 3.1 SW 19 24 10 13 1022.6 - 0.0
19/07:30pm 13.0 9.0 6.6 65 3.1 SW 17 20 9 11 1022.5 - 0.0
19/07:15pm 11.2 9.2 6.1 71 2.4 SW 6 15 3 8 1022.3 - 0.0
19/07:00pm 11.4 9.7 5.8 68 2.6 SE 4 6 2 3 1022.0 - 0.0
19/06:45pm 12.0 9.9 6.0 66 2.8 E 6 7 3 4 1021.8 - 0.0
19/06:30pm 12.5 10.3 6.1 65 3.0 E 7 9 4 5 1021.5 - 0.0
19/06:15pm 12.8 10.7 6.0 63 3.2 E 6 7 3 4 1021.3 - 0.0
19/06:00pm 13.3 11.2 5.9 61 3.5 ESE 6 7 3 4 1021.2 - 0.0
19/05:45pm 13.9 11.6 5.8 58 3.9 ESE 7 13 4 7 1020.9 - 0.0
19/05:30pm 14.7 12.0 5.8 55 4.3 ESE 9 11 5 6 1020.7 - 0.0
19/05:15pm 15.0 12.6 5.2 52 4.7 E 7 9 4 5 1020.6 - 0.0
19/05:00pm 15.7 13.2 5.0 49 5.1 E 7 11 4 6 1020.4 - 0.0
19/04:45pm 16.9 14.6 4.9 45 5.8 WNW 6 7 3 4 1020.1 - 0.0
19/04:30pm 17.8 15.5 4.7 42 6.3 WNW 6 7 3 4 1020.0 - 0.0
19/04:15pm 18.2 15.8 4.5 40 6.6 W 6 9 3 5 1019.9 - 0.0
19/04:00pm 18.7 16.8 4.8 40 6.7 WSW 4 7 2 4 1019.8 - 0.0
19/03:45pm 18.4 16.0 4.3 39 6.8 WSW 6 11 3 6 1019.7 - 0.0
19/03:30pm 18.7 16.2 4.5 39 6.8 SW 7 11 4 6 1019.6 - 0.0
19/03:15pm 18.9 16.5 4.5 38 6.9 WSW 6 11 3 6 1019.5 - 0.0
19/03:00pm 18.8 16.5 4.6 39 6.9 SW 6 11 3 6 1019.4 - 0.0
19/02:45pm 18.3 15.0 4.3 39 6.7 WSW 11 19 6 10 1019.2 - 0.0
19/02:30pm 18.3 15.0 4.4 39 6.7 WSW 11 17 6 9 1019.1 - 0.0
19/02:15pm 18.3 14.6 4.2 39 6.7 W 13 19 7 10 1019.0 - 0.0
19/02:00pm 18.3 15.4 4.6 40 6.6 WSW 9 19 5 10 1018.9 - 0.0
19/01:45pm 18.1 15.2 4.4 40 6.6 WSW 9 15 5 8 1018.9 - 0.0
19/01:30pm 18.1 14.8 4.3 40 6.6 WSW 11 20 6 11 1018.8 - 0.0
19/01:15pm 18.3 15.6 3.9 38 6.8 S 7 13 4 7 1018.8 - 0.0
19/01:00pm 18.4 15.2 5.0 41 6.5 SSW 11 20 6 11 1018.9 - 0.0
19/12:45pm 18.1 14.5 5.2 42 6.3 SSW 13 20 7 11 1019.1 - 0.0
19/12:30pm 17.7 13.7 4.7 42 6.2 SSW 15 19 8 10 1019.2 - 0.0
19/12:15pm 17.4 13.1 5.2 44 5.9 SW 17 24 9 13 1019.3 - 0.0
19/12:00pm 17.0 12.6 4.9 44 5.8 WSW 17 24 9 13 1019.6 - 0.0
19/11:45am 16.7 12.0 5.0 46 5.6 SW 19 24 10 13 1019.7 - 0.0
19/11:30am 16.3 11.4 4.9 46 5.4 SW 20 28 11 15 1019.8 - 0.0
19/11:15am 16.0 10.6 4.7 47 5.4 SW 22 32 12 17 1019.9 - 0.0
19/11:00am 15.6 10.8 4.7 48 5.2 SW 19 30 10 16 1020.1 - 0.0
19/10:45am 15.2 9.8 4.6 49 5.0 SW 22 33 12 18 1020.1 - 0.0
19/10:30am 14.6 9.2 4.3 50 4.8 SW 22 35 12 19 1020.2 - 0.0
19/10:15am 14.1 8.3 4.2 51 4.6 SW 24 37 13 20 1020.2 - 0.0

Latest Capital City Observations: Canberra | Sydney | Melbourne | Brisbane | Adelaide | Perth | Hobart | Darwin

Other formats

Comma delimited format used in spreadsheet applications
http://www.bom.gov.au/fwo/IDN60901/IDN60901.95757.axf

JavaScript Object Notation format (JSON) in row-major order
http://www.bom.gov.au/fwo/IDN60901/IDN60901.95757.json

Data quality

Most of these data are generated automatically and are frequently updated. Quality checks on data are not normally performed. It is possible for incorrect values to appear. Refer to information at About Latest Weather Observations and please check the disclaimer before using these data.